Time;durP1;ratioP1;P1;durP2;ratioP2;P2;SDS_P1;SDS_P2;PMS_P1;PMS_P2;Temp;Humidity;BMP_temperature;BMP_pressure;BME280_temperature;BME280_humidity;BME280_pressure;Samples;Min_cycle;Max_cycle;Signal;HPM_P1;HPM_P2
2022/07/27 00:00:58;;;;;;;3.88;1.20;;;;;;;;;;5007522;28;20030;-53
2022/07/27 00:03:24;;;;;;;1.73;0.90;;;;;;;;;;5005363;28;20125;-53
2022/07/27 00:05:50;;;;;;;5.10;1.48;;;;;;;;;;5007397;28;20037;-56
2022/07/27 00:08:19;;;;;;;6.60;0.98;;;;;;;;;;5005855;28;21500;-53
2022/07/27 00:10:45;;;;;;;2.38;1.13;;;;;;;;;;5007468;28;20042;-56
2022/07/27 00:13:11;;;;;;;2.88;1.35;;;;;;;;;;5009332;28;20030;-52
2022/07/27 00:15:37;;;;;;;3.13;1.20;;;;;;;;;;5006543;28;20502;-53
2022/07/27 00:18:03;;;;;;;2.15;1.15;;;;;;;;;;5007120;28;20029;-53
2022/07/27 00:20:30;;;;;;;11.93;1.30;;;;;;;;;;5004946;28;20060;-56
2022/07/27 00:22:56;;;;;;;8.20;1.20;;;;;;;;;;5006819;28;20533;-53
2022/07/27 00:25:23;;;;;;;3.97;1.10;;;;;;;;;;5007357;28;20042;-51
2022/07/27 00:27:49;;;;;;;1.92;1.30;;;;;;;;;;5006714;28;20030;-55
2022/07/27 00:30:15;;;;;;;12.00;1.00;;;;;;;;;;5006052;28;20498;-55
2022/07/27 00:32:41;;;;;;;2.30;0.75;;;;;;;;;;5007912;28;20091;-50
2022/07/27 00:35:07;;;;;;;4.65;1.30;;;;;;;;;;5003917;28;20037;-54
2022/07/27 00:37:33;;;;;;;6.20;1.20;;;;;;;;;;5006808;28;20070;-52
2022/07/27 00:39:59;;;;;;;2.83;1.05;;;;;;;;;;5007482;28;20033;-52
2022/07/27 00:42:28;;;;;;;6.32;1.08;;;;;;;;;;5009229;28;20033;-54
2022/07/27 00:44:54;;;;;;;3.13;1.10;;;;;;;;;;5004744;28;20022;-55
2022/07/27 00:47:21;;;;;;;4.30;1.13;;;;;;;;;;5003666;28;20034;-54
2022/07/27 00:49:47;;;;;;;3.78;1.10;;;;;;;;;;5007428;28;20033;-55
2022/07/27 00:52:13;;;;;;;6.70;1.00;;;;;;;;;;5002368;28;20362;-54
2022/07/27 00:54:40;;;;;;;3.70;0.85;;;;;;;;;;5003934;28;20379;-50
2022/07/27 00:57:11;;;;;;;5.28;1.17;;;;;;;;;;5003967;28;20478;-53
2022/07/27 00:59:38;;;;;;;2.60;0.98;;;;;;;;;;5003965;28;20037;-53
2022/07/27 01:02:05;;;;;;;4.03;1.13;;;;;;;;;;5004939;28;20034;-57
2022/07/27 01:04:31;;;;;;;3.58;0.93;;;;;;;;;;5005155;28;20021;-54
2022/07/27 01:06:57;;;;;;;2.13;1.00;;;;;;;;;;5005205;28;20316;-53
2022/07/27 01:12:12;;;;;;;8.23;1.50;;;;;;;;;;5005725;28;20065;-51
2022/07/27 01:14:38;;;;;;;6.07;1.15;;;;;;;;;;5005717;28;20034;-51
2022/07/27 01:17:05;;;;;;;3.80;1.30;;;;;;;;;;5006644;28;20033;-56
2022/07/27 01:19:31;;;;;;;11.43;1.42;;;;;;;;;;5004606;28;20033;-53
2022/07/27 01:21:57;;;;;;;4.38;0.80;;;;;;;;;;5006443;28;20054;-54
2022/07/27 01:24:23;;;;;;;5.38;1.05;;;;;;;;;;5002358;28;20068;-51
2022/07/27 01:26:49;;;;;;;3.15;1.35;;;;;;;;;;5006173;28;20024;-53
2022/07/27 01:29:14;;;;;;;10.00;1.10;;;;;;;;;;5005342;28;20026;-55
2022/07/27 01:31:40;;;;;;;6.25;1.20;;;;;;;;;;5006178;28;20085;-51
2022/07/27 01:34:06;;;;;;;11.93;1.30;;;;;;;;;;5007758;28;20066;-56
2022/07/27 01:36:31;;;;;;;9.23;1.33;;;;;;;;;;5005625;28;20379;-54
2022/07/27 01:38:57;;;;;;;6.13;1.40;;;;;;;;;;5003963;28;20033;-57
2022/07/27 01:41:23;;;;;;;2.55;1.10;;;;;;;;;;5001994;28;20046;-53
2022/07/27 01:43:48;;;;;;;7.50;0.98;;;;;;;;;;5002895;28;20018;-53
2022/07/27 01:46:14;;;;;;;10.35;1.30;;;;;;;;;;5004865;28;20538;-54
2022/07/27 01:48:40;;;;;;;7.47;1.20;;;;;;;;;;5006738;28;20050;-55
2022/07/27 01:51:06;;;;;;;13.40;1.20;;;;;;;;;;5007295;28;20690;-52
2022/07/27 01:53:32;;;;;;;6.57;1.48;;;;;;;;;;5007897;28;20022;-53
2022/07/27 01:55:57;;;;;;;6.20;0.90;;;;;;;;;;5005518;28;20133;-52
2022/07/27 01:58:23;;;;;;;6.45;1.13;;;;;;;;;;5003976;28;21966;-52
2022/07/27 02:00:49;;;;;;;12.07;1.52;;;;;;;;;;5010166;28;20140;-53
2022/07/27 02:03:15;;;;;;;3.92;1.05;;;;;;;;;;5009171;28;20057;-56
2022/07/27 02:05:40;;;;;;;8.93;1.30;;;;;;;;;;5013277;28;20021;-52
2022/07/27 02:08:07;;;;;;;3.60;0.80;;;;;;;;;;5007765;28;20097;-50
2022/07/27 02:10:34;;;;;;;5.50;1.20;;;;;;;;;;5011458;28;20026;-54
2022/07/27 02:13:00;;;;;;;3.13;0.85;;;;;;;;;;5011635;28;20104;-55
2022/07/27 02:15:28;;;;;;;8.10;0.90;;;;;;;;;;5009501;28;20494;-55
2022/07/27 02:17:54;;;;;;;2.63;0.85;;;;;;;;;;5008119;28;20033;-55
2022/07/27 02:20:23;;;;;;;1.88;1.17;;;;;;;;;;5008312;28;20666;-50
2022/07/27 02:22:50;;;;;;;7.43;1.63;;;;;;;;;;5009724;28;20383;-55
2022/07/27 02:25:17;;;;;;;5.50;1.05;;;;;;;;;;5008048;28;20156;-53
2022/07/27 02:27:44;;;;;;;9.65;1.55;;;;;;;;;;5005875;28;20382;-55
2022/07/27 02:30:11;;;;;;;2.17;1.10;;;;;;;;;;5006826;28;20536;-53
2022/07/27 02:32:39;;;;;;;1.67;1.00;;;;;;;;;;5006623;28;20034;-53
2022/07/27 02:35:06;;;;;;;3.63;0.88;;;;;;;;;;5006401;28;20631;-53
2022/07/27 02:37:31;;;;;;;4.88;0.95;;;;;;;;;;5009556;28;20030;-53
2022/07/27 02:39:57;;;;;;;7.25;1.20;;;;;;;;;;5005195;28;20018;-54
2022/07/27 02:42:22;;;;;;;2.88;0.95;;;;;;;;;;5009123;28;20463;-55
2022/07/27 02:44:48;;;;;;;3.72;1.20;;;;;;;;;;5009798;28;20028;-56
2022/07/27 02:47:14;;;;;;;5.07;1.15;;;;;;;;;;5007952;28;20030;-52
2022/07/27 02:49:40;;;;;;;1.33;0.93;;;;;;;;;;5009429;28;20076;-51
2022/07/27 02:52:05;;;;;;;2.15;1.00;;;;;;;;;;5004594;28;20037;-53
2022/07/27 02:54:31;;;;;;;5.63;1.20;;;;;;;;;;5010477;28;20039;-53
2022/07/27 02:57:01;;;;;;;3.72;1.77;;;;;;;;;;5012460;28;20064;-51
2022/07/27 02:59:28;;;;;;;4.93;1.10;;;;;;;;;;5008288;28;20096;-55
2022/07/27 03:01:54;;;;;;;4.05;0.85;;;;;;;;;;5006530;28;20034;-53
2022/07/27 03:04:19;;;;;;;4.28;1.23;;;;;;;;;;5005250;28;20030;-49
2022/07/27 03:06:46;;;;;;;8.80;1.10;;;;;;;;;;5009132;28;20040;-51
2022/07/27 03:09:12;;;;;;;2.88;1.15;;;;;;;;;;5005628;28;20062;-53
2022/07/27 03:11:38;;;;;;;1.90;1.20;;;;;;;;;;5011482;28;20034;-51
2022/07/27 03:14:03;;;;;;;5.45;2.50;;;;;;;;;;5008030;28;20033;-53
2022/07/27 03:16:29;;;;;;;6.43;1.48;;;;;;;;;;5010009;28;20034;-52
2022/07/27 03:18:56;;;;;;;7.88;1.00;;;;;;;;;;5008594;28;20113;-52
2022/07/27 03:21:23;;;;;;;1.77;1.15;;;;;;;;;;5009107;28;20033;-52
2022/07/27 03:23:49;;;;;;;11.40;1.42;;;;;;;;;;5010055;28;20640;-52
2022/07/27 03:26:15;;;;;;;2.72;1.10;;;;;;;;;;5006138;28;20065;-52
2022/07/27 03:28:41;;;;;;;5.15;1.45;;;;;;;;;;5009419;28;20120;-51
2022/07/27 03:31:06;;;;;;;5.93;1.33;;;;;;;;;;5008785;28;20105;-51
2022/07/27 03:33:34;;;;;;;1.35;0.95;;;;;;;;;;5007449;28;20030;-53
2022/07/27 03:35:59;;;;;;;5.35;1.23;;;;;;;;;;5009520;28;20030;-52
2022/07/27 03:38:25;;;;;;;4.40;1.00;;;;;;;;;;5009420;28;20033;-55
2022/07/27 03:40:51;;;;;;;5.05;0.93;;;;;;;;;;5008260;28;20022;-55
2022/07/27 03:43:16;;;;;;;0.95;0.80;;;;;;;;;;5005899;28;20037;-53
2022/07/27 03:45:43;;;;;;;4.57;1.10;;;;;;;;;;5005054;28;20101;-56
2022/07/27 03:48:09;;;;;;;1.27;1.00;;;;;;;;;;5010192;28;20045;-54
2022/07/27 03:50:35;;;;;;;7.13;1.00;;;;;;;;;;5007075;28;20033;-53
2022/07/27 03:53:01;;;;;;;1.70;1.05;;;;;;;;;;5008763;28;20030;-51
2022/07/27 03:55:27;;;;;;;3.58;1.13;;;;;;;;;;5006435;28;20088;-55
2022/07/27 03:57:53;;;;;;;7.82;1.13;;;;;;;;;;5005041;28;20442;-53
2022/07/27 04:00:19;;;;;;;9.65;0.90;;;;;;;;;;5009294;28;20034;-54
2022/07/27 04:02:45;;;;;;;2.55;1.13;;;;;;;;;;5008045;28;20034;-56
2022/07/27 04:05:11;;;;;;;3.92;1.20;;;;;;;;;;5007873;28;20049;-54
2022/07/27 04:07:38;;;;;;;5.22;0.88;;;;;;;;;;5006422;28;20479;-49
2022/07/27 04:10:04;;;;;;;5.75;1.10;;;;;;;;;;5004637;28;20026;-55
2022/07/27 04:12:30;;;;;;;3.38;1.10;;;;;;;;;;5006738;28;20038;-55
2022/07/27 04:15:17;;;;;;;10.02;1.20;;;;;;;;;;5003982;28;20533;-55
2022/07/27 04:18:03;;;;;;;3.75;1.20;;;;;;;;;;5007342;28;20057;-54
2022/07/27 04:20:48;;;;;;;5.65;1.00;;;;;;;;;;5007898;28;20041;-55
2022/07/27 04:23:34;;;;;;;3.10;1.45;;;;;;;;;;5005693;28;20150;-54
2022/07/27 04:26:19;;;;;;;3.97;1.00;;;;;;;;;;5007516;28;20099;-56
2022/07/27 04:29:05;;;;;;;3.08;1.00;;;;;;;;;;5001560;28;20033;-53
2022/07/27 04:31:50;;;;;;;12.02;1.13;;;;;;;;;;5003708;28;20092;-55
2022/07/27 04:34:35;;;;;;;2.05;1.10;;;;;;;;;;5009472;28;20088;-51
2022/07/27 04:37:21;;;;;;;8.93;1.35;;;;;;;;;;5005389;28;20051;-55
2022/07/27 04:40:06;;;;;;;11.60;1.55;;;;;;;;;;5007042;28;20049;-51
2022/07/27 04:42:50;;;;;;;12.98;1.40;;;;;;;;;;5003571;28;20087;-56
2022/07/27 04:45:34;;;;;;;3.25;1.10;;;;;;;;;;5002765;28;20064;-56
2022/07/27 04:48:18;;;;;;;4.97;1.00;;;;;;;;;;5004263;28;20095;-53
2022/07/27 04:51:03;;;;;;;3.80;1.17;;;;;;;;;;5007719;28;20037;-54
2022/07/27 04:53:49;;;;;;;2.10;0.85;;;;;;;;;;5003413;28;20030;-54
2022/07/27 04:56:15;;;;;;;5.88;2.30;;;;;;;;;;5002789;28;20056;-53
2022/07/27 04:58:41;;;;;;;4.80;1.02;;;;;;;;;;5005546;28;20034;-55
2022/07/27 05:01:10;;;;;;;5.88;1.20;;;;;;;;;;5006624;28;20367;-55
2022/07/27 05:03:36;;;;;;;3.45;1.10;;;;;;;;;;5004955;28;20044;-54
2022/07/27 05:06:01;;;;;;;7.85;1.10;;;;;;;;;;5003193;28;20037;-53
2022/07/27 05:08:27;;;;;;;1.85;1.00;;;;;;;;;;5003369;28;20044;-51
2022/07/27 05:10:52;;;;;;;1.17;0.93;;;;;;;;;;5007115;28;20037;-54
2022/07/27 05:13:18;;;;;;;4.10;0.77;;;;;;;;;;5002818;28;20636;-51
2022/07/27 05:15:44;;;;;;;8.32;1.50;;;;;;;;;;5006876;28;20054;-55
2022/07/27 05:18:09;;;;;;;2.35;1.00;;;;;;;;;;5004526;28;20410;-50
2022/07/27 05:20:35;;;;;;;3.13;1.10;;;;;;;;;;5006009;28;20041;-54
2022/07/27 05:23:01;;;;;;;1.75;1.00;;;;;;;;;;5003013;28;20045;-54
2022/07/27 05:25:26;;;;;;;1.67;1.08;;;;;;;;;;5001232;28;20080;-51
2022/07/27 05:27:53;;;;;;;2.15;1.00;;;;;;;;;;5002103;28;20042;-53
2022/07/27 05:30:19;;;;;;;1.77;0.90;;;;;;;;;;5005367;28;20114;-54
2022/07/27 05:32:46;;;;;;;2.83;1.58;;;;;;;;;;5009958;28;20112;-50
2022/07/27 05:35:12;;;;;;;1.92;0.90;;;;;;;;;;5010641;28;20032;-56
2022/07/27 05:37:38;;;;;;;2.10;0.98;;;;;;;;;;5008430;28;20052;-55
2022/07/27 05:40:05;;;;;;;2.13;0.93;;;;;;;;;;5009038;28;20026;-50
2022/07/27 05:42:31;;;;;;;2.42;0.98;;;;;;;;;;5008922;28;20034;-53
2022/07/27 05:44:57;;;;;;;6.90;1.20;;;;;;;;;;5008857;28;20030;-51
2022/07/27 05:47:23;;;;;;;1.27;0.80;;;;;;;;;;5009190;28;20381;-54
2022/07/27 05:49:49;;;;;;;5.90;1.30;;;;;;;;;;5008234;28;20022;-53
2022/07/27 05:52:15;;;;;;;5.20;1.20;;;;;;;;;;5008769;28;20442;-53
2022/07/27 05:54:45;;;;;;;2.35;1.00;;;;;;;;;;5009653;28;20026;-55
2022/07/27 05:57:11;;;;;;;6.05;1.10;;;;;;;;;;5006555;28;20483;-52
2022/07/27 05:59:37;;;;;;;2.08;1.17;;;;;;;;;;5010510;28;20052;-53
2022/07/27 06:02:03;;;;;;;2.90;0.80;;;;;;;;;;5007692;28;20105;-56
2022/07/27 06:04:29;;;;;;;2.03;1.30;;;;;;;;;;5007022;28;20080;-53
2022/07/27 06:09:39;;;;;;;5.40;1.70;;;;;;;;;;5005707;28;20476;-53
2022/07/27 06:12:05;;;;;;;4.72;1.08;;;;;;;;;;5007325;28;20116;-53
2022/07/27 06:14:31;;;;;;;2.53;1.10;;;;;;;;;;5006019;28;20437;-54
2022/07/27 06:16:58;;;;;;;3.13;0.95;;;;;;;;;;5005892;28;20096;-54
2022/07/27 06:19:23;;;;;;;4.70;1.42;;;;;;;;;;5011585;28;20125;-53
2022/07/27 06:21:49;;;;;;;4.47;1.08;;;;;;;;;;5007268;28;20113;-56
2022/07/27 06:24:16;;;;;;;2.15;1.20;;;;;;;;;;5008173;28;20450;-55
2022/07/27 06:26:42;;;;;;;5.15;1.08;;;;;;;;;;5008529;28;20042;-49
2022/07/27 06:29:08;;;;;;;10.50;1.27;;;;;;;;;;5007700;28;20391;-53
2022/07/27 06:31:34;;;;;;;5.30;1.10;;;;;;;;;;5006411;28;20034;-52
2022/07/27 06:33:59;;;;;;;3.08;1.00;;;;;;;;;;5003403;28;20026;-55
2022/07/27 06:36:25;;;;;;;9.80;1.25;;;;;;;;;;5010504;28;20520;-52
2022/07/27 06:38:50;;;;;;;6.15;1.30;;;;;;;;;;5010407;28;20042;-53
2022/07/27 06:41:16;;;;;;;3.13;1.30;;;;;;;;;;5010446;28;20125;-55
2022/07/27 06:43:42;;;;;;;4.78;1.55;;;;;;;;;;5007909;28;20493;-55
2022/07/27 06:46:11;;;;;;;3.80;1.25;;;;;;;;;;5008516;28;20048;-51
2022/07/27 06:48:38;;;;;;;6.05;1.13;;;;;;;;;;5008720;28;20052;-55
2022/07/27 06:51:04;;;;;;;4.63;1.08;;;;;;;;;;5003848;28;20576;-54
2022/07/27 06:53:30;;;;;;;6.03;1.58;;;;;;;;;;5006470;28;20036;-53
2022/07/27 06:55:58;;;;;;;2.95;1.25;;;;;;;;;;5003273;28;20447;-56
2022/07/27 06:58:23;;;;;;;1.85;1.08;;;;;;;;;;5007407;28;20025;-54
2022/07/27 07:00:49;;;;;;;4.05;1.20;;;;;;;;;;5009268;28;20048;-50
2022/07/27 07:03:14;;;;;;;5.03;1.17;;;;;;;;;;5007332;28;20068;-54
2022/07/27 07:05:45;;;;;;;5.40;1.42;;;;;;;;;;5008953;28;20072;-56
2022/07/27 07:08:12;;;;;;;2.78;1.30;;;;;;;;;;5006862;28;20030;-51
2022/07/27 07:10:39;;;;;;;4.20;1.27;;;;;;;;;;5002672;28;20030;-49
2022/07/27 07:13:06;;;;;;;4.90;1.25;;;;;;;;;;5006383;28;20475;-52
2022/07/27 07:15:34;;;;;;;3.70;1.30;;;;;;;;;;5006591;28;20033;-56
2022/07/27 07:18:01;;;;;;;3.40;1.35;;;;;;;;;;5007433;28;20181;-52
2022/07/27 07:20:27;;;;;;;7.00;1.55;;;;;;;;;;5006212;28;20029;-55
2022/07/27 07:22:52;;;;;;;3.83;1.30;;;;;;;;;;5006786;28;20490;-53
2022/07/27 07:25:19;;;;;;;3.70;1.42;;;;;;;;;;5005399;28;20028;-54
2022/07/27 07:27:44;;;;;;;11.65;1.45;;;;;;;;;;5008585;28;20042;-55
2022/07/27 07:30:11;;;;;;;2.38;1.30;;;;;;;;;;5005893;28;20390;-51
2022/07/27 07:32:36;;;;;;;2.95;1.05;;;;;;;;;;5007719;28;20109;-51
2022/07/27 07:35:03;;;;;;;8.13;1.48;;;;;;;;;;5005835;28;20502;-51
2022/07/27 07:37:29;;;;;;;3.78;1.38;;;;;;;;;;5006946;28;20037;-54
2022/07/27 07:39:55;;;;;;;3.08;1.30;;;;;;;;;;5005865;28;20030;-56
2022/07/27 07:42:21;;;;;;;9.07;1.33;;;;;;;;;;5004548;28;20026;-51
2022/07/27 07:44:47;;;;;;;3.25;1.20;;;;;;;;;;5008000;28;20053;-51
2022/07/27 07:47:12;;;;;;;6.78;1.30;;;;;;;;;;5003646;28;20022;-56
2022/07/27 07:49:38;;;;;;;3.22;1.13;;;;;;;;;;5005780;28;20042;-56
2022/07/27 07:52:04;;;;;;;2.42;1.30;;;;;;;;;;5006836;28;20037;-50
2022/07/27 07:54:29;;;;;;;2.45;1.20;;;;;;;;;;5002788;28;20030;-52
2022/07/27 07:56:55;;;;;;;4.70;1.27;;;;;;;;;;5004501;28;20046;-54
2022/07/27 07:59:21;;;;;;;4.00;1.30;;;;;;;;;;5010234;28;20042;-51
2022/07/27 08:01:46;;;;;;;10.35;1.48;;;;;;;;;;5007388;28;20100;-52
2022/07/27 08:04:12;;;;;;;7.68;1.73;;;;;;;;;;5003462;28;20092;-53
2022/07/27 08:06:38;;;;;;;9.13;2.03;;;;;;;;;;5006075;28;20048;-49
2022/07/27 08:09:05;;;;;;;5.43;1.67;;;;;;;;;;5007295;28;20042;-52
2022/07/27 08:11:31;;;;;;;5.25;1.48;;;;;;;;;;5007515;28;20033;-54
2022/07/27 08:13:57;;;;;;;5.65;1.30;;;;;;;;;;5006675;28;20553;-52
2022/07/27 08:16:23;;;;;;;6.63;1.52;;;;;;;;;;5005575;28;20037;-51
2022/07/27 08:18:49;;;;;;;7.28;1.48;;;;;;;;;;5007352;28;20037;-50
2022/07/27 08:21:14;;;;;;;9.65;1.50;;;;;;;;;;5007753;28;20091;-49
2022/07/27 08:23:40;;;;;;;1.95;1.50;;;;;;;;;;5006770;28;20441;-49
2022/07/27 08:26:06;;;;;;;5.32;1.52;;;;;;;;;;5006038;28;20026;-49
2022/07/27 08:28:32;;;;;;;1.52;1.10;;;;;;;;;;5004981;28;20061;-53
2022/07/27 08:30:58;;;;;;;3.63;1.60;;;;;;;;;;5007368;28;20371;-53
2022/07/27 08:33:23;;;;;;;4.25;1.73;;;;;;;;;;5002864;28;20103;-49
2022/07/27 08:35:49;;;;;;;5.38;1.70;;;;;;;;;;5007734;28;20103;-54
2022/07/27 08:38:15;;;;;;;2.65;1.30;;;;;;;;;;5006744;28;20033;-50
2022/07/27 08:40:41;;;;;;;8.85;2.58;;;;;;;;;;5007068;28;20041;-53
2022/07/27 08:43:07;;;;;;;2.22;1.65;;;;;;;;;;5004446;28;20049;-50
2022/07/27 08:45:34;;;;;;;8.15;1.92;;;;;;;;;;5002518;28;20037;-50
2022/07/27 08:48:00;;;;;;;5.82;1.55;;;;;;;;;;5006315;28;20041;-49
2022/07/27 08:50:28;;;;;;;5.50;1.55;;;;;;;;;;5006967;28;20054;-53
2022/07/27 08:53:03;;;;;;;5.80;1.30;;;;;;;;;;5004965;28;20060;-49
2022/07/27 08:55:32;;;;;;;2.17;1.20;;;;;;;;;;5005681;28;20050;-55
2022/07/27 08:57:59;;;;;;;4.10;1.50;;;;;;;;;;5005357;28;20030;-56
2022/07/27 09:00:26;;;;;;;3.75;1.50;;;;;;;;;;5001769;28;20112;-51
2022/07/27 09:02:52;;;;;;;2.45;1.20;;;;;;;;;;5005413;28;20386;-55
2022/07/27 09:05:18;;;;;;;4.30;1.77;;;;;;;;;;5005145;28;20061;-48
2022/07/27 09:07:43;;;;;;;7.07;1.60;;;;;;;;;;5006173;28;20100;-54
2022/07/27 09:10:10;;;;;;;5.28;1.55;;;;;;;;;;5007232;28;20085;-50
2022/07/27 09:12:37;;;;;;;2.15;1.50;;;;;;;;;;5009214;28;20033;-49
2022/07/27 09:15:11;;;;;;;9.88;1.70;;;;;;;;;;4999777;28;20029;-54
2022/07/27 09:17:40;;;;;;;8.85;1.40;;;;;;;;;;5006191;28;20042;-49
2022/07/27 09:20:15;;;;;;;3.25;1.60;;;;;;;;;;5003063;28;20489;-54
2022/07/27 09:22:53;;;;;;;4.60;1.90;;;;;;;;;;5006102;28;20042;-51
2022/07/27 09:25:25;;;;;;;5.22;1.50;;;;;;;;;;5005322;28;20030;-53
2022/07/27 09:27:56;;;;;;;2.38;1.27;;;;;;;;;;5002245;28;20471;-51
2022/07/27 09:30:23;;;;;;;7.30;1.58;;;;;;;;;;5005834;28;20509;-55
2022/07/27 09:32:59;;;;;;;7.18;1.75;;;;;;;;;;5003297;28;20030;-56
2022/07/27 09:35:28;;;;;;;8.38;1.50;;;;;;;;;;5004167;28;20066;-48
2022/07/27 09:38:21;;;;;;;6.93;1.40;;;;;;;;;;5003733;28;20030;-48
2022/07/27 09:40:56;;;;;;;4.47;1.60;;;;;;;;;;5003346;28;20042;-53
2022/07/27 09:43:22;;;;;;;4.88;1.80;;;;;;;;;;5004193;28;20033;-52
2022/07/27 09:45:49;;;;;;;6.40;1.90;;;;;;;;;;5005547;28;20038;-49
2022/07/27 09:48:17;;;;;;;4.13;1.45;;;;;;;;;;5003773;28;20033;-49
2022/07/27 09:50:59;;;;;;;4.22;1.90;;;;;;;;;;5004877;28;20022;-54
2022/07/27 09:53:33;;;;;;;4.03;1.60;;;;;;;;;;5006436;28;20022;-53
2022/07/27 09:56:15;;;;;;;8.55;1.50;;;;;;;;;;5005823;28;20050;-49
2022/07/27 09:58:49;;;;;;;3.20;1.60;;;;;;;;;;5001570;28;20083;-53
2022/07/27 10:01:20;;;;;;;7.85;1.80;;;;;;;;;;5002888;28;20034;-53
2022/07/27 10:03:48;;;;;;;5.00;2.00;;;;;;;;;;5003734;28;20421;-48
2022/07/27 10:06:14;;;;;;;6.32;2.13;;;;;;;;;;5000896;28;20084;-49
2022/07/27 10:08:43;;;;;;;4.18;2.30;;;;;;;;;;5006582;28;20042;-48
2022/07/27 10:11:09;;;;;;;6.05;1.90;;;;;;;;;;5005369;28;20158;-51
2022/07/27 10:13:35;;;;;;;9.50;2.00;;;;;;;;;;5002600;28;20030;-54
2022/07/27 10:16:05;;;;;;;6.22;1.80;;;;;;;;;;5005232;28;20026;-51
2022/07/27 10:18:37;;;;;;;8.75;1.98;;;;;;;;;;4998720;28;20091;-49
2022/07/27 10:21:07;;;;;;;2.78;1.80;;;;;;;;;;5005511;28;20021;-53
2022/07/27 10:23:36;;;;;;;4.70;1.67;;;;;;;;;;5008537;28;20068;-53
2022/07/27 10:26:24;;;;;;;4.05;1.88;;;;;;;;;;5009142;28;20279;-51
2022/07/27 10:28:51;;;;;;;4.13;1.83;;;;;;;;;;5008828;28;20112;-53
2022/07/27 10:31:25;;;;;;;2.63;2.10;;;;;;;;;;5009730;28;20038;-50
2022/07/27 10:33:53;;;;;;;4.45;2.35;;;;;;;;;;5008503;28;20028;-48
2022/07/27 10:36:21;;;;;;;3.55;2.42;;;;;;;;;;5006971;28;20100;-50
2022/07/27 10:38:55;;;;;;;6.70;2.08;;;;;;;;;;5009413;28;20091;-51
2022/07/27 10:41:33;;;;;;;7.53;2.00;;;;;;;;;;5007019;28;20030;-52
2022/07/27 10:44:17;;;;;;;7.40;2.78;;;;;;;;;;5007897;28;20083;-52
2022/07/27 10:47:02;;;;;;;9.20;2.00;;;;;;;;;;5008126;28;20037;-55
2022/07/27 10:49:30;;;;;;;7.47;2.33;;;;;;;;;;5007607;28;20431;-49
2022/07/27 10:51:57;;;;;;;4.15;2.40;;;;;;;;;;5008510;28;20394;-48
2022/07/27 10:54:26;;;;;;;3.58;1.88;;;;;;;;;;5004825;28;20031;-52
2022/07/27 10:56:56;;;;;;;3.03;1.60;;;;;;;;;;5005807;28;20321;-50
2022/07/27 10:59:36;;;;;;;7.57;2.40;;;;;;;;;;5008764;28;20033;-51
2022/07/27 11:02:03;;;;;;;2.93;2.03;;;;;;;;;;5007815;28;20030;-50
2022/07/27 11:04:30;;;;;;;3.85;2.00;;;;;;;;;;5007888;28;20040;-52
2022/07/27 11:07:01;;;;;;;4.82;1.80;;;;;;;;;;5004355;28;20032;-48
2022/07/27 11:09:38;;;;;;;7.50;2.05;;;;;;;;;;5008539;28;20042;-54
2022/07/27 11:12:05;;;;;;;2.63;2.22;;;;;;;;;;5007902;28;20471;-53
2022/07/27 11:14:41;;;;;;;10.00;2.30;;;;;;;;;;5006650;28;20053;-50
2022/07/27 11:17:08;;;;;;;5.63;2.30;;;;;;;;;;5007088;28;20030;-51
2022/07/27 11:19:33;;;;;;;4.60;2.22;;;;;;;;;;5008275;28;20133;-50
2022/07/27 11:21:59;;;;;;;4.90;2.35;;;;;;;;;;5008795;28;20104;-52
2022/07/27 11:24:26;;;;;;;2.42;2.00;;;;;;;;;;5009244;28;21172;-49
2022/07/27 11:26:52;;;;;;;6.47;2.13;;;;;;;;;;5007236;28;20032;-52
2022/07/27 11:29:20;;;;;;;6.35;2.20;;;;;;;;;;5006247;28;20069;-53
2022/07/27 11:31:50;;;;;;;5.25;2.17;;;;;;;;;;5007958;28;20061;-51
2022/07/27 11:34:17;;;;;;;6.38;2.50;;;;;;;;;;5008790;28;20618;-55
2022/07/27 11:36:47;;;;;;;10.13;2.30;;;;;;;;;;5004732;28;20037;-52
2022/07/27 11:39:15;;;;;;;3.97;2.60;;;;;;;;;;5008073;28;20505;-53
2022/07/27 11:41:42;;;;;;;10.43;2.00;;;;;;;;;;5007553;28;20134;-54
2022/07/27 11:44:10;;;;;;;6.43;2.05;;;;;;;;;;5004540;28;20022;-49
2022/07/27 11:46:44;;;;;;;5.45;1.98;;;;;;;;;;5006996;28;20053;-52
2022/07/27 11:49:17;;;;;;;5.30;2.00;;;;;;;;;;5006636;28;20040;-51
2022/07/27 11:51:47;;;;;;;7.32;3.33;;;;;;;;;;5006607;28;20096;-51
2022/07/27 11:54:34;;;;;;;4.05;2.17;;;;;;;;;;5007805;28;20076;-51
2022/07/27 11:57:05;;;;;;;3.75;1.90;;;;;;;;;;5004082;28;20089;-52
2022/07/27 11:59:33;;;;;;;5.80;2.60;;;;;;;;;;5010615;28;20034;-55
2022/07/27 12:02:01;;;;;;;5.13;2.10;;;;;;;;;;5001334;28;20033;-48
2022/07/27 12:04:29;;;;;;;4.88;2.15;;;;;;;;;;5008526;28;20372;-52
2022/07/27 12:07:16;;;;;;;4.53;1.88;;;;;;;;;;5007445;28;20461;-43
2022/07/27 12:09:44;;;;;;;8.52;2.13;;;;;;;;;;5003610;28;20026;-55
2022/07/27 12:12:20;;;;;;;6.28;2.58;;;;;;;;;;5001414;28;20037;-52
2022/07/27 12:14:50;;;;;;;7.97;2.80;;;;;;;;;;5004130;28;20030;-50
2022/07/27 12:17:38;;;;;;;4.95;2.00;;;;;;;;;;5004341;28;20050;-53
2022/07/27 12:20:04;;;;;;;3.25;2.28;;;;;;;;;;5005200;28;20407;-48
2022/07/27 12:22:31;;;;;;;4.75;2.10;;;;;;;;;;5003208;28;20077;-54
2022/07/27 12:24:58;;;;;;;9.00;2.33;;;;;;;;;;5003071;28;20093;-53
2022/07/27 12:27:27;;;;;;;8.35;2.35;;;;;;;;;;5003629;28;20034;-49
2022/07/27 12:30:12;;;;;;;5.18;1.98;;;;;;;;;;5006475;28;20030;-51
2022/07/27 12:32:43;;;;;;;5.40;2.40;;;;;;;;;;5002167;28;20033;-52
2022/07/27 12:35:45;;;;;;;6.80;2.47;;;;;;;;;;5005712;28;20037;-54
2022/07/27 12:38:12;;;;;;;3.65;2.38;;;;;;;;;;5007257;28;20034;-48
2022/07/27 12:40:47;;;;;;;3.13;2.17;;;;;;;;;;5003431;28;20080;-52
2022/07/27 12:43:16;;;;;;;10.18;2.28;;;;;;;;;;5006299;28;20526;-51
2022/07/27 12:45:42;;;;;;;6.00;2.67;;;;;;;;;;5006596;28;20030;-48
2022/07/27 12:48:08;;;;;;;2.20;2.00;;;;;;;;;;5004444;28;20030;-50
2022/07/27 12:50:34;;;;;;;8.60;2.50;;;;;;;;;;5004656;28;20159;-52
2022/07/27 12:53:00;;;;;;;4.90;2.10;;;;;;;;;;5006658;28;20510;-53
2022/07/27 12:55:26;;;;;;;3.30;2.05;;;;;;;;;;5005381;28;20096;-55
2022/07/27 12:57:55;;;;;;;5.82;2.13;;;;;;;;;;5007968;28;20862;-52
2022/07/27 13:00:23;;;;;;;9.75;2.00;;;;;;;;;;5003395;28;20116;-53
2022/07/27 13:02:49;;;;;;;7.55;2.20;;;;;;;;;;5007138;28;20160;-51
2022/07/27 13:05:15;;;;;;;2.92;2.28;;;;;;;;;;5005994;28;20026;-51
2022/07/27 13:07:44;;;;;;;5.55;2.17;;;;;;;;;;5006344;28;20060;-55
2022/07/27 13:10:11;;;;;;;12.98;2.25;;;;;;;;;;5005207;28;20018;-48
2022/07/27 13:12:37;;;;;;;6.95;2.40;;;;;;;;;;5008779;28;20034;-55
2022/07/27 13:15:05;;;;;;;5.85;1.95;;;;;;;;;;5002143;28;20033;-55
2022/07/27 13:17:32;;;;;;;8.85;2.22;;;;;;;;;;5005949;28;20050;-49
2022/07/27 13:19:58;;;;;;;4.97;2.30;;;;;;;;;;5004837;28;20042;-51
2022/07/27 13:22:24;;;;;;;4.60;2.08;;;;;;;;;;5006979;28;20022;-54
2022/07/27 13:24:49;;;;;;;11.70;2.20;;;;;;;;;;5005363;28;20495;-49
2022/07/27 13:27:15;;;;;;;3.38;2.30;;;;;;;;;;5003200;28;20470;-52
2022/07/27 13:29:41;;;;;;;3.95;2.30;;;;;;;;;;5005831;28;20037;-48
2022/07/27 13:32:07;;;;;;;5.03;2.20;;;;;;;;;;5004736;28;20025;-48
2022/07/27 13:34:33;;;;;;;5.15;2.10;;;;;;;;;;5002473;28;20070;-50
2022/07/27 13:36:58;;;;;;;2.28;1.90;;;;;;;;;;5005950;28;20506;-49
2022/07/27 13:39:24;;;;;;;6.25;2.20;;;;;;;;;;5004512;28;20071;-54
2022/07/27 13:41:53;;;;;;;3.13;1.90;;;;;;;;;;5006308;28;20129;-52
2022/07/27 13:44:20;;;;;;;4.43;2.03;;;;;;;;;;5005354;28;20038;-52
2022/07/27 13:46:47;;;;;;;8.15;2.20;;;;;;;;;;5003305;28;20042;-48
2022/07/27 13:49:15;;;;;;;6.10;2.35;;;;;;;;;;5005423;28;20030;-52
2022/07/27 13:51:41;;;;;;;3.97;2.05;;;;;;;;;;5004166;28;20422;-51
2022/07/27 13:54:07;;;;;;;3.67;2.05;;;;;;;;;;5007109;28;20030;-53
2022/07/27 13:56:33;;;;;;;2.03;1.83;;;;;;;;;;5010260;28;20061;-50
2022/07/27 13:58:59;;;;;;;4.20;1.90;;;;;;;;;;5011542;28;20029;-51
2022/07/27 14:01:25;;;;;;;4.93;2.05;;;;;;;;;;5008334;28;20021;-50
2022/07/27 14:03:52;;;;;;;11.65;2.10;;;;;;;;;;5008510;28;20060;-53
2022/07/27 14:06:18;;;;;;;6.30;2.17;;;;;;;;;;5008696;28;20038;-53
2022/07/27 14:08:44;;;;;;;4.10;1.75;;;;;;;;;;5008888;28;20037;-48
2022/07/27 14:11:10;;;;;;;5.18;2.08;;;;;;;;;;5011368;28;20549;-50
2022/07/27 14:13:36;;;;;;;4.15;2.10;;;;;;;;;;5008314;28;20030;-55
2022/07/27 14:16:02;;;;;;;3.25;1.70;;;;;;;;;;5007339;28;20080;-48
2022/07/27 14:18:30;;;;;;;5.00;2.13;;;;;;;;;;5003878;28;20069;-50
2022/07/27 14:20:59;;;;;;;3.28;1.92;;;;;;;;;;5010572;28;20034;-50
2022/07/27 14:23:26;;;;;;;3.97;2.28;;;;;;;;;;5005682;28;20018;-54
2022/07/27 14:25:53;;;;;;;7.78;2.15;;;;;;;;;;5010835;28;20022;-50
2022/07/27 14:28:20;;;;;;;3.22;1.90;;;;;;;;;;5007711;28;20026;-48
2022/07/27 14:30:46;;;;;;;4.28;2.55;;;;;;;;;;5009427;28;20034;-54
2022/07/27 14:33:12;;;;;;;6.93;1.77;;;;;;;;;;5005620;28;20029;-48
2022/07/27 14:35:38;;;;;;;3.38;2.10;;;;;;;;;;5005616;28;20029;-52
2022/07/27 14:38:04;;;;;;;8.13;2.10;;;;;;;;;;5009508;28;20033;-52
2022/07/27 14:40:29;;;;;;;5.10;2.08;;;;;;;;;;5009833;28;20041;-50
2022/07/27 14:42:55;;;;;;;4.75;1.80;;;;;;;;;;5009098;28;20031;-51
2022/07/27 14:45:21;;;;;;;4.32;2.08;;;;;;;;;;5008293;28;20045;-51
2022/07/27 14:47:46;;;;;;;3.15;1.73;;;;;;;;;;5005959;28;20030;-55
2022/07/27 14:50:13;;;;;;;13.98;2.05;;;;;;;;;;5005130;28;20502;-52
2022/07/27 14:52:39;;;;;;;6.30;2.17;;;;;;;;;;5009801;28;20037;-52
2022/07/27 14:55:06;;;;;;;6.38;2.40;;;;;;;;;;5008613;28;20046;-52